Clinton, NC

5:11 PM EDT en Julio 23, 2016 (GMT -0400)
Sampson County | | Change Station
Aviso en curso: Heat Advisory

Alt 148 ft 34.98 °N, 78.36 °W | Updated 11 minutes ago

Mostly Cloudy
Muy nublado
91 ° F
Sensación térmica 105 ° F
N
8
Viento Variable Viento desde Sur

Hoy
Alta -- | Baja -- ° F
--% Posibilidad de precipitaciones
Ayer
Alta -- | Baja -- ° F
Precip. -- pul
Presión 29.95 pul
Visibilidad 10.0 Millas
Nubes Nubes dispersas 4200 ft
Muy nublado 4800 ft
Índice de calor 105 ° F
Punto de rocío 78 ° F
Humedad 64%
Precipitaciones 0.08 pul
Espesor de la nieve No disponible.
6:16 AM 8:22 PM
Gibosa menguante, 82% visible
METAR KCTZ 232100Z AUTO 19007KT 160V220 10SM SCT042 BKN048 33/25 A2995 RMK AO2 T03290254
Presión 29.95 pul
Visibilidad 10.0 Millas
Nubes Nubes dispersas 4200 ft
Muy nublado 4800 ft
Índice de calor 105 ° F
Punto de rocío 78 ° F
Humedad 64%
Precipitaciones 0.08 pul
Espesor de la nieve No disponible.
6:16 AM 8:22 PM
Gibosa menguante, 82% visible
METAR KCTZ 232100Z AUTO 19007KT 160V220 10SM SCT042 BKN048 33/25 A2995 RMK AO2 T03290254

10-Day Weather Forecast

Almanac

Astronomía

Jul. 23, 2016 Salida Puesta
Hora real
Crepúsculo civil
Crepúsculo náutico
Crepúsculo astronómico
Luna
Horas de luz
Horas de luz
Tomorrow will be .
, % of the Moon is Illuminated

Extremos de hoy

Máximos del estado Bajos del estado

Community

WunderPhotos

Upload Photos

1,926,927 ¡fotos cargadas!

WunderBlog® & News

Nearby

Calidad del aire

  Calidad del aire Índice AQ Contaminante
Not available.

Grosos de nieve

Estación Profundido Altura

Actividad de terremotos

Ciudad Distance Mag. Tiempo y dato
Magnitud mínima muestra es 2,5.

Temperaturas de aguas costeras

Lugar Temperatura

Stations

Estaciones meteorológicas cercanas

Ubicación de la estación Temp. Vientos helados Punto de rocío Humedad Viento Precip. Alt Actualizado Tipo
                   

Watches & Warnings

Heat Advisory
Issued: 3:31 PM EDT Jul. 23, 2016 – National Weather Service

... Heat advisory in effect from noon to 8 PM EDT Sunday...

The National Weather Service in Raleigh has issued a heat
advisory... which is in effect from noon to 8 PM EDT Sunday.

* Temperature... highs will be in the upper 90s.

* Impacts... the heat and humidity will make it feel close to 105
degrees on Sunday. Being in direct sunlight will make it feel
even hotter. This will lead to a greater risk of heat
illnesses... especially among vulnerable communities such as the
sick and elderly... those exerting themselves outdoors... and
those without air conditioning.

Precautionary/preparedness actions...

A heat advisory means that a period of hot temperatures and high
humidity will create a situation in which heat illnesses are
possible. Drink plenty of fluids... stay in an air-conditioned
room... stay out of the sun... and check up on relatives and
neighbors.



Gih